Time;durP1;ratioP1;P1;durP2;ratioP2;P2;SDS_P1;SDS_P2;PMS_P1;PMS_P2;Temp;Humidity;BMP_temperature;BMP_pressure;BME280_temperature;BME280_humidity;BME280_pressure;Samples;Min_cycle;Max_cycle;Signal;HPM_P1;HPM_P2
2022/12/07 00:01:53;;;;;;;5.18;4.18;;;3.50;99.90;;;;;;5077011;28;20227;-94
2022/12/07 00:04:20;;;;;;;5.70;4.25;;;3.40;99.90;;;;;;5077869;28;20201;-93
2022/12/07 00:06:51;;;;;;;7.70;3.90;;;3.40;99.90;;;;;;5081399;28;20286;-92
2022/12/07 00:09:19;;;;;;;4.45;3.67;;;3.40;99.90;;;;;;5096835;28;20239;-93
2022/12/07 00:11:50;;;;;;;5.22;3.78;;;3.40;99.90;;;;;;5096917;28;20211;-93
2022/12/07 00:14:17;;;;;;;6.70;4.18;;;3.40;99.90;;;;;;5097128;28;20201;-93
2022/12/07 00:16:45;;;;;;;5.50;4.22;;;3.40;99.90;;;;;;5097074;28;20216;-92
2022/12/07 00:19:14;;;;;;;5.53;3.97;;;3.40;99.90;;;;;;5097300;28;20205;-92
2022/12/07 00:21:41;;;;;;;5.00;4.10;;;3.40;99.90;;;;;;5097102;28;20277;-94
2022/12/07 00:24:08;;;;;;;6.07;4.70;;;3.40;99.90;;;;;;5097236;28;20200;-94
2022/12/07 00:26:37;;;;;;;6.25;4.70;;;3.40;99.90;;;;;;5094601;28;20264;-94
2022/12/07 00:29:07;;;;;;;5.60;3.75;;;3.40;99.90;;;;;;5077525;28;20236;-92
2022/12/07 00:31:38;;;;;;;5.78;3.63;;;3.50;99.90;;;;;;5076245;28;20257;-93
2022/12/07 00:34:05;;;;;;;5.50;4.45;;;3.40;99.90;;;;;;5075292;28;20223;-94
2022/12/07 00:36:32;;;;;;;6.97;4.20;;;3.40;99.90;;;;;;5074878;28;20205;-94
2022/12/07 00:39:00;;;;;;;5.20;3.70;;;3.40;99.90;;;;;;5076282;28;20295;-93
2022/12/07 00:41:28;;;;;;;5.53;3.70;;;3.40;99.90;;;;;;5077678;28;20231;-93
2022/12/07 00:43:56;;;;;;;6.50;4.78;;;3.40;99.90;;;;;;5079839;28;20296;-93
2022/12/07 00:46:25;;;;;;;5.65;4.07;;;3.40;99.90;;;;;;5079069;28;20268;-93
2022/12/07 00:48:53;;;;;;;8.63;5.25;;;3.40;99.90;;;;;;5078931;28;20229;-93
2022/12/07 00:51:22;;;;;;;5.40;4.05;;;3.40;99.90;;;;;;5078712;28;20221;-94
2022/12/07 00:53:52;;;;;;;6.07;4.43;;;3.40;99.90;;;;;;5078928;28;20208;-93
2022/12/07 00:56:21;;;;;;;5.18;4.28;;;3.40;99.90;;;;;;5079000;28;20693;-94
2022/12/07 00:58:51;;;;;;;5.25;4.30;;;3.30;99.90;;;;;;5079758;28;20201;-94
2022/12/07 01:01:18;;;;;;;5.97;4.32;;;3.40;99.90;;;;;;5079056;28;20201;-93
2022/12/07 01:03:46;;;;;;;7.10;3.55;;;3.40;99.90;;;;;;5078966;28;20300;-93
2022/12/07 01:06:16;;;;;;;5.38;4.60;;;3.40;99.90;;;;;;5078703;28;20274;-94
2022/12/07 01:08:43;;;;;;;6.13;4.53;;;3.20;99.90;;;;;;5079726;28;20452;-94
2022/12/07 01:11:14;;;;;;;7.25;4.18;;;3.30;99.90;;;;;;5078875;28;20205;-94
2022/12/07 01:13:41;;;;;;;4.10;3.60;;;3.20;99.90;;;;;;5079884;28;20211;-94
2022/12/07 01:16:10;;;;;;;7.00;4.68;;;3.20;99.90;;;;;;5079637;28;20300;-93
2022/12/07 01:18:37;;;;;;;4.72;3.80;;;3.20;99.90;;;;;;5078924;28;20693;-93
2022/12/07 01:21:08;;;;;;;5.53;3.83;;;3.20;99.90;;;;;;5077499;28;20211;-94
2022/12/07 01:23:35;;;;;;;4.28;3.80;;;3.20;99.90;;;;;;5077930;28;20215;-93
2022/12/07 01:26:06;;;;;;;5.80;4.10;;;3.20;99.90;;;;;;5077794;28;20201;-92
2022/12/07 01:28:33;;;;;;;4.72;3.85;;;3.20;99.90;;;;;;5077575;28;20215;-94
2022/12/07 01:31:01;;;;;;;7.07;5.35;;;3.20;99.90;;;;;;5077643;28;20197;-93
2022/12/07 01:33:29;;;;;;;5.45;4.00;;;3.20;99.90;;;;;;5077983;28;20641;-93
2022/12/07 01:36:01;;;;;;;6.75;4.78;;;3.20;99.90;;;;;;5079313;28;20681;-93
2022/12/07 01:38:30;;;;;;;7.43;4.68;;;3.20;99.90;;;;;;5077228;28;20207;-93
2022/12/07 01:40:57;;;;;;;5.57;4.60;;;3.10;99.90;;;;;;5077072;28;20786;-92
2022/12/07 01:43:26;;;;;;;5.20;3.90;;;3.10;99.90;;;;;;5077662;28;20236;-93
2022/12/07 01:45:53;;;;;;;5.20;4.63;;;3.10;99.90;;;;;;5080001;28;20250;-92
2022/12/07 01:48:24;;;;;;;5.00;4.00;;;3.20;99.90;;;;;;5096764;28;20209;-94
2022/12/07 01:50:52;;;;;;;6.50;4.50;;;3.20;99.90;;;;;;5085945;28;20227;-94
2022/12/07 01:53:21;;;;;;;7.30;4.85;;;3.10;99.90;;;;;;5081110;28;20294;-93
2022/12/07 01:55:52;;;;;;;6.38;5.28;;;3.10;99.90;;;;;;5079030;28;20236;-94
2022/12/07 01:58:20;;;;;;;6.88;4.65;;;3.10;99.90;;;;;;5079329;28;20281;-94
2022/12/07 02:00:48;;;;;;;6.30;4.70;;;3.10;99.90;;;;;;5078218;28;20312;-93
2022/12/07 02:03:19;;;;;;;6.75;4.80;;;3.10;99.90;;;;;;5079580;28;20319;-94
2022/12/07 02:05:49;;;;;;;6.20;4.50;;;3.10;99.90;;;;;;5079153;28;20201;-93
2022/12/07 02:08:16;;;;;;;7.55;4.53;;;3.10;99.90;;;;;;5078394;28;20291;-93
2022/12/07 02:10:43;;;;;;;8.57;5.68;;;3.10;99.90;;;;;;5078079;28;20205;-93
2022/12/07 02:13:14;;;;;;;6.63;4.53;;;3.00;99.90;;;;;;5078770;28;20221;-93
2022/12/07 02:16:09;;;;;;;6.53;4.25;;;3.00;99.90;;;;;;5078248;28;20201;-93
2022/12/07 02:18:48;;;;;;;9.13;5.45;;;3.00;99.90;;;;;;5064575;28;20726;-92
2022/12/07 02:21:25;;;;;;;8.45;4.93;;;3.00;99.90;;;;;;5057734;28;20216;-93
2022/12/07 02:24:15;;;;;;;8.68;5.50;;;3.00;99.90;;;;;;5058231;28;20255;-93
2022/12/07 02:27:08;;;;;;;5.40;4.30;;;3.00;99.90;;;;;;5058444;28;20274;-93
2022/12/07 02:29:42;;;;;;;6.80;5.20;;;3.00;99.90;;;;;;5057491;28;20229;-93
2022/12/07 02:32:16;;;;;;;8.25;4.30;;;3.00;99.90;;;;;;5058340;28;20225;-93
2022/12/07 02:34:49;;;;;;;5.65;4.43;;;3.00;99.90;;;;;;5057671;28;20207;-93
2022/12/07 02:37:28;;;;;;;6.45;4.40;;;3.00;99.90;;;;;;5057523;28;20209;-93
2022/12/07 02:40:01;;;;;;;6.97;4.95;;;3.00;99.90;;;;;;5058885;28;20379;-94
2022/12/07 02:42:34;;;;;;;11.00;5.35;;;3.00;99.90;;;;;;5057566;28;20233;-93
2022/12/07 02:45:05;;;;;;;7.15;4.15;;;3.00;99.90;;;;;;5060140;28;20206;-94
2022/12/07 02:47:34;;;;;;;4.82;4.35;;;3.00;99.90;;;;;;5060613;28;20198;-94
2022/12/07 02:50:04;;;;;;;5.90;4.97;;;2.90;99.90;;;;;;5057300;28;20317;-93
2022/12/07 02:52:31;;;;;;;7.88;4.78;;;2.90;99.90;;;;;;5056493;28;20780;-94
2022/12/07 02:54:58;;;;;;;7.47;4.90;;;2.90;99.90;;;;;;5057160;28;20297;-94
2022/12/07 02:57:39;;;;;;;6.65;4.88;;;2.90;99.90;;;;;;5056907;28;20205;-95
2022/12/07 03:00:09;;;;;;;6.20;4.45;;;2.90;99.90;;;;;;5063937;28;20191;-96
2022/12/07 03:02:45;;;;;;;8.20;4.57;;;2.90;99.90;;;;;;5074188;28;20340;-93
2022/12/07 03:05:23;;;;;;;7.57;5.47;;;2.90;99.90;;;;;;5058678;28;20236;-93
2022/12/07 03:07:56;;;;;;;7.47;5.05;;;2.90;99.90;;;;;;5058258;28;20208;-93
2022/12/07 03:10:28;;;;;;;7.63;4.90;;;2.90;99.90;;;;;;5056271;28;20226;-93
2022/12/07 03:13:03;;;;;;;8.00;5.22;;;2.90;99.90;;;;;;5056568;28;20328;-92
2022/12/07 03:15:36;;;;;;;7.80;4.70;;;2.90;99.90;;;;;;5056066;28;20205;-92
2022/12/07 03:18:05;;;;;;;7.70;5.10;;;2.90;99.90;;;;;;5056061;28;20300;-93
2022/12/07 03:20:35;;;;;;;7.95;5.32;;;3.00;99.90;;;;;;5055535;28;20204;-93
2022/12/07 03:23:05;;;;;;;6.85;5.00;;;3.00;99.90;;;;;;5055980;28;20380;-93
2022/12/07 03:25:35;;;;;;;5.93;4.60;;;2.90;99.90;;;;;;5056372;28;20250;-93
2022/12/07 03:28:05;;;;;;;6.25;4.95;;;2.90;99.90;;;;;;5055930;28;20224;-93
2022/12/07 03:30:38;;;;;;;6.95;5.00;;;2.90;99.90;;;;;;5055806;28;20252;-93
2022/12/07 03:33:10;;;;;;;6.32;4.63;;;2.90;99.90;;;;;;5055797;28;20221;-92
2022/12/07 03:35:40;;;;;;;6.78;4.28;;;2.90;99.90;;;;;;5055411;28;20224;-92
2022/12/07 03:38:16;;;;;;;5.82;4.55;;;2.90;99.90;;;;;;5055429;28;20209;-92
2022/12/07 03:40:50;;;;;;;6.60;4.63;;;2.80;99.90;;;;;;5054495;28;20204;-92
2022/12/07 03:43:19;;;;;;;5.80;5.22;;;2.80;99.90;;;;;;5054631;28;20225;-92
2022/12/07 03:45:56;;;;;;;7.15;4.60;;;2.80;99.90;;;;;;5054865;28;20205;-95
2022/12/07 03:48:31;;;;;;;7.00;4.43;;;2.80;99.90;;;;;;5055769;28;20201;-93
2022/12/07 03:51:05;;;;;;;9.00;4.70;;;2.90;99.90;;;;;;5056503;28;20195;-93
2022/12/07 03:53:38;;;;;;;4.93;4.10;;;2.90;99.90;;;;;;5056408;28;20308;-93
2022/12/07 03:56:06;;;;;;;6.13;4.90;;;2.80;99.90;;;;;;5055563;28;20658;-92
2022/12/07 03:58:34;;;;;;;7.22;5.30;;;2.90;99.90;;;;;;5054876;28;20205;-93
2022/12/07 04:01:02;;;;;;;6.13;4.85;;;2.80;99.90;;;;;;5055252;28;20202;-92
2022/12/07 04:03:29;;;;;;;5.82;4.43;;;2.80;99.90;;;;;;5056715;28;20208;-92
2022/12/07 04:05:56;;;;;;;5.85;4.65;;;2.80;99.90;;;;;;5057187;28;20292;-93
2022/12/07 04:08:23;;;;;;;7.55;5.50;;;2.80;99.90;;;;;;5056737;28;20675;-92
2022/12/07 04:10:50;;;;;;;6.72;4.78;;;2.80;99.90;;;;;;5055563;28;20312;-93
2022/12/07 04:13:16;;;;;;;5.93;5.18;;;2.80;99.90;;;;;;5054472;28;20268;-92
2022/12/07 04:15:43;;;;;;;7.10;5.15;;;2.80;99.90;;;;;;5059195;28;20206;-93
2022/12/07 04:18:11;;;;;;;5.78;4.40;;;2.80;99.90;;;;;;5067165;28;20221;-94
2022/12/07 04:20:38;;;;;;;5.40;4.20;;;2.80;99.90;;;;;;5082931;28;20205;-93
2022/12/07 04:23:05;;;;;;;5.70;4.28;;;2.80;99.90;;;;;;5083568;28;20228;-93
2022/12/07 04:25:32;;;;;;;5.90;3.92;;;2.70;99.90;;;;;;5083294;28;20205;-93
2022/12/07 04:27:59;;;;;;;6.25;4.20;;;2.70;99.90;;;;;;5083251;28;20188;-93
2022/12/07 04:30:26;;;;;;;6.05;4.30;;;2.70;99.90;;;;;;5082705;28;20256;-94
2022/12/07 04:32:52;;;;;;;6.15;4.57;;;2.70;99.90;;;;;;5071357;28;20214;-92
2022/12/07 04:35:21;;;;;;;7.45;4.35;;;2.80;99.90;;;;;;5061866;28;20201;-91
2022/12/07 04:37:48;;;;;;;8.27;4.50;;;2.70;99.90;;;;;;5064687;28;20202;-92
2022/12/07 04:40:15;;;;;;;6.28;4.35;;;2.70;99.90;;;;;;5061241;28;20217;-92
2022/12/07 04:42:42;;;;;;;6.03;4.40;;;2.80;99.90;;;;;;5060155;28;20256;-91
2022/12/07 04:45:14;;;;;;;5.55;4.47;;;2.80;99.90;;;;;;5060597;28;20201;-91
2022/12/07 04:47:41;;;;;;;5.72;4.00;;;2.80;99.90;;;;;;5060462;28;20204;-92
2022/12/07 04:50:10;;;;;;;7.43;4.85;;;2.80;99.90;;;;;;5060063;28;20487;-92
2022/12/07 04:52:43;;;;;;;6.10;4.25;;;2.70;99.90;;;;;;5061314;28;20320;-92
2022/12/07 04:55:10;;;;;;;5.13;4.60;;;2.80;99.90;;;;;;5064961;28;20214;-91
2022/12/07 04:57:37;;;;;;;3.85;2.65;;;2.70;99.90;;;;;;5071455;28;20190;-95
2022/12/07 05:00:04;;;;;;;4.07;3.53;;;2.60;99.90;;;;;;5089518;22;20319;-68
2022/12/07 05:02:31;;;;;;;4.60;3.05;;;2.50;99.90;;;;;;5076827;28;20199;-68
2022/12/07 05:04:58;;;;;;;6.75;3.05;;;2.50;99.90;;;;;;5076948;28;20208;-69
2022/12/07 05:07:24;;;;;;;4.60;3.28;;;2.50;99.90;;;;;;5076585;28;20957;-69
2022/12/07 05:09:52;;;;;;;5.30;3.80;;;2.50;99.90;;;;;;5076428;28;20224;-68
2022/12/07 05:12:19;;;;;;;3.80;2.85;;;2.40;99.90;;;;;;5075850;28;20657;-68
2022/12/07 05:14:46;;;;;;;3.25;2.40;;;2.40;99.90;;;;;;5076520;28;20209;-68
2022/12/07 05:17:13;;;;;;;3.55;2.95;;;2.30;99.90;;;;;;5076308;28;20225;-68
2022/12/07 05:19:40;;;;;;;3.50;2.70;;;2.30;99.90;;;;;;5075921;28;20236;-69
2022/12/07 05:22:06;;;;;;;2.90;2.58;;;2.30;99.90;;;;;;5075876;28;20208;-69
2022/12/07 05:24:33;;;;;;;4.55;3.25;;;2.30;99.90;;;;;;5076123;28;20572;-68
2022/12/07 05:27:01;;;;;;;4.03;2.97;;;2.30;99.90;;;;;;5073597;28;20224;-68
2022/12/07 05:29:28;;;;;;;3.72;2.88;;;2.30;99.90;;;;;;5072615;28;20217;-68
2022/12/07 05:31:55;;;;;;;4.00;2.85;;;2.40;99.90;;;;;;5072764;28;20211;-68
2022/12/07 05:34:21;;;;;;;4.85;3.30;;;2.40;99.90;;;;;;5072960;28;20942;-68
2022/12/07 05:36:48;;;;;;;4.90;3.25;;;2.40;99.90;;;;;;5073019;28;20699;-68
2022/12/07 05:39:15;;;;;;;6.70;2.78;;;2.30;99.90;;;;;;5072974;28;20254;-68
2022/12/07 05:44:24;;;;;;;4.05;3.38;;;2.30;99.90;;;;;;5063818;28;20839;-68
2022/12/07 05:46:51;;;;;;;5.50;3.33;;;2.30;99.90;;;;;;5072839;28;20228;-68
2022/12/07 05:49:18;;;;;;;3.83;3.40;;;2.20;99.90;;;;;;5072613;28;20201;-68
2022/12/07 05:51:45;;;;;;;3.85;2.42;;;2.10;99.90;;;;;;5084348;22;20215;-64
2022/12/07 05:54:11;;;;;;;4.60;3.20;;;2.00;99.90;;;;;;5052873;28;20206;-62
2022/12/07 05:56:38;;;;;;;4.72;3.35;;;1.90;99.90;;;;;;5052990;28;20226;-62
2022/12/07 05:59:23;;;;;;;3.47;3.05;;;1.90;99.90;;;;;;5053180;28;20676;-62
2022/12/07 06:01:52;;;;;;;4.97;3.72;;;1.80;99.90;;;;;;5052654;28;20300;-62
2022/12/07 06:04:20;;;;;;;3.25;2.75;;;1.70;99.90;;;;;;5052912;28;20202;-62
2022/12/07 06:06:47;;;;;;;3.65;3.25;;;1.60;99.90;;;;;;5052598;28;20226;-62
2022/12/07 06:09:14;;;;;;;3.70;2.88;;;1.60;99.90;;;;;;5052582;28;20212;-63
2022/12/07 06:14:26;;;;;;;4.13;3.08;;;1.50;99.90;;;;;;5052584;28;20196;-61
2022/12/07 06:16:54;;;;;;;3.85;3.35;;;1.50;99.90;;;;;;5052425;28;20229;-62
2022/12/07 06:19:21;;;;;;;4.40;3.15;;;1.50;99.90;;;;;;5052133;28;20212;-62
2022/12/07 06:21:48;;;;;;;6.47;5.03;;;1.50;99.90;;;;;;5051787;28;20208;-62
2022/12/07 06:24:16;;;;;;;4.80;3.60;;;1.50;99.90;;;;;;5052320;28;20220;-63
2022/12/07 06:26:43;;;;;;;6.07;3.67;;;1.60;99.90;;;;;;5052324;28;20228;-62
2022/12/07 06:29:10;;;;;;;3.40;3.10;;;1.60;99.90;;;;;;5052215;28;20201;-62
2022/12/07 06:31:38;;;;;;;4.40;3.17;;;1.60;99.90;;;;;;5051431;28;20312;-63
2022/12/07 06:34:08;;;;;;;3.40;2.72;;;1.70;99.90;;;;;;5035160;28;20209;-65
2022/12/07 06:36:34;;;;;;;8.40;3.78;;;1.70;99.90;;;;;;5031909;28;20222;-63
2022/12/07 06:39:01;;;;;;;5.10;3.13;;;1.70;99.90;;;;;;5031034;28;20234;-64
2022/12/07 06:41:28;;;;;;;5.30;3.42;;;1.70;99.90;;;;;;5031917;28;20666;-66
2022/12/07 06:43:55;;;;;;;6.28;4.15;;;1.70;99.90;;;;;;5032405;28;20206;-65
2022/12/07 06:46:22;;;;;;;5.68;4.60;;;1.70;99.90;;;;;;5032612;28;20643;-65
2022/12/07 06:48:49;;;;;;;7.15;4.68;;;1.80;99.90;;;;;;5032184;28;20584;-66
2022/12/07 06:51:17;;;;;;;4.15;3.00;;;1.70;99.90;;;;;;5031782;28;20224;-66
2022/12/07 06:53:44;;;;;;;3.15;2.45;;;1.80;99.90;;;;;;5032080;28;20211;-66
2022/12/07 06:56:11;;;;;;;6.00;3.83;;;1.70;99.90;;;;;;5031882;28;20209;-65
2022/12/07 06:58:37;;;;;;;4.53;2.50;;;1.70;99.90;;;;;;5032346;28;20213;-65
2022/12/07 07:01:10;;;;;;;5.80;3.67;;;1.60;99.90;;;;;;5031563;28;20198;-65
2022/12/07 07:03:37;;;;;;;7.20;3.80;;;1.70;99.90;;;;;;5031982;28;20202;-63
2022/12/07 07:06:04;;;;;;;4.32;3.67;;;1.60;99.90;;;;;;5031495;28;20198;-63
2022/12/07 07:08:32;;;;;;;5.47;3.65;;;1.60;99.90;;;;;;5031730;28;20209;-63
2022/12/07 07:10:58;;;;;;;6.32;3.25;;;1.60;99.90;;;;;;5031039;28;20485;-62
2022/12/07 07:13:25;;;;;;;3.97;3.58;;;1.50;99.90;;;;;;5031764;28;20211;-65
2022/12/07 07:15:52;;;;;;;5.80;3.75;;;1.60;99.90;;;;;;5031269;28;20245;-65
2022/12/07 07:18:19;;;;;;;6.15;4.25;;;1.60;99.90;;;;;;5031431;28;20231;-65
2022/12/07 07:20:46;;;;;;;5.50;3.45;;;1.50;99.90;;;;;;5030782;28;20246;-65
2022/12/07 07:23:13;;;;;;;4.75;3.58;;;1.60;99.90;;;;;;5031818;28;20312;-65
2022/12/07 07:25:41;;;;;;;3.78;3.33;;;1.60;99.90;;;;;;5031557;28;20203;-65
2022/12/07 07:28:07;;;;;;;4.05;3.65;;;1.60;99.90;;;;;;5031691;28;20261;-65
2022/12/07 07:30:34;;;;;;;6.43;3.92;;;1.70;99.90;;;;;;5030533;28;20507;-66
2022/12/07 07:33:03;;;;;;;6.38;4.65;;;1.70;99.90;;;;;;5031049;28;20209;-65
2022/12/07 07:35:31;;;;;;;4.50;4.07;;;1.80;99.90;;;;;;5031234;28;20202;-66
2022/12/07 07:37:58;;;;;;;5.63;3.45;;;1.80;99.90;;;;;;5030967;28;20620;-66
2022/12/07 07:40:25;;;;;;;5.45;3.97;;;1.80;99.90;;;;;;5030928;28;20213;-62
2022/12/07 07:42:54;;;;;;;5.03;4.25;;;1.80;99.90;;;;;;5032403;28;20214;-68
2022/12/07 07:45:23;;;;;;;5.20;4.15;;;1.80;99.90;;;;;;5032016;28;20210;-63
2022/12/07 07:47:51;;;;;;;5.00;4.03;;;1.80;99.90;;;;;;5031496;28;20226;-65
2022/12/07 07:50:18;;;;;;;5.93;3.95;;;1.80;99.90;;;;;;5030621;28;20223;-65
2022/12/07 07:52:45;;;;;;;5.13;4.63;;;1.90;99.90;;;;;;5030876;28;20214;-66
2022/12/07 07:55:12;;;;;;;6.18;3.83;;;1.90;99.90;;;;;;5030919;28;20208;-65
2022/12/07 07:57:41;;;;;;;5.05;3.80;;;1.90;99.90;;;;;;5030595;28;20227;-66
2022/12/07 08:00:12;;;;;;;10.50;7.20;;;2.00;99.90;;;;;;5031292;28;20203;-66
2022/12/07 08:02:39;;;;;;;6.40;4.00;;;2.00;99.90;;;;;;5030834;28;20203;-66
2022/12/07 08:05:07;;;;;;;4.93;3.30;;;2.00;99.90;;;;;;5031356;28;20202;-67
2022/12/07 08:07:33;;;;;;;5.35;3.60;;;2.10;99.90;;;;;;5031454;28;20237;-66
2022/12/07 08:10:00;;;;;;;5.95;3.72;;;2.10;99.90;;;;;;5030936;28;20210;-66
2022/12/07 08:12:27;;;;;;;5.18;3.67;;;2.10;99.90;;;;;;5030921;28;20599;-66
2022/12/07 08:14:53;;;;;;;3.85;3.40;;;2.10;99.90;;;;;;5031150;28;20206;-67
2022/12/07 08:17:22;;;;;;;5.75;3.88;;;2.20;99.90;;;;;;5030785;28;20223;-65
2022/12/07 08:19:48;;;;;;;6.82;3.85;;;2.20;99.90;;;;;;5031072;28;20202;-66
2022/12/07 08:22:15;;;;;;;5.32;4.18;;;2.30;99.90;;;;;;5030712;28;20205;-66
2022/12/07 08:24:42;;;;;;;7.80;5.40;;;2.30;99.90;;;;;;5030900;28;20206;-66
2022/12/07 08:27:08;;;;;;;5.13;4.47;;;2.40;99.90;;;;;;5030549;28;20227;-66
2022/12/07 08:29:35;;;;;;;5.00;3.88;;;2.50;99.90;;;;;;5030558;28;20214;-66
2022/12/07 08:32:02;;;;;;;4.75;3.63;;;2.50;99.90;;;;;;5030473;28;20225;-64
2022/12/07 08:34:30;;;;;;;6.57;3.55;;;2.50;99.90;;;;;;5030707;28;20206;-64
2022/12/07 08:36:57;;;;;;;6.28;3.72;;;2.50;99.90;;;;;;5031613;28;20289;-63
2022/12/07 08:39:23;;;;;;;6.25;3.90;;;2.60;99.90;;;;;;5031793;28;20210;-63
2022/12/07 08:41:50;;;;;;;5.03;3.50;;;2.70;99.90;;;;;;5030267;28;20195;-63
2022/12/07 08:44:17;;;;;;;5.90;3.97;;;2.80;99.90;;;;;;5030496;28;20203;-66
2022/12/07 08:46:48;;;;;;;5.43;4.07;;;2.90;99.90;;;;;;5029651;28;20222;-66
2022/12/07 08:49:17;;;;;;;5.82;3.20;;;3.00;99.90;;;;;;5030007;28;20207;-65
2022/12/07 08:51:45;;;;;;;4.63;3.92;;;2.90;99.90;;;;;;5029071;28;20594;-66
2022/12/07 08:54:15;;;;;;;5.28;3.50;;;3.00;99.90;;;;;;5030027;28;20673;-66
2022/12/07 08:56:43;;;;;;;3.55;2.95;;;3.00;99.90;;;;;;5029769;28;20222;-65
2022/12/07 08:59:11;;;;;;;6.32;3.58;;;3.10;99.90;;;;;;5030209;28;20209;-65
2022/12/07 09:01:38;;;;;;;3.40;3.10;;;3.30;99.90;;;;;;5030343;28;20245;-65
2022/12/07 09:04:05;;;;;;;5.65;4.30;;;3.40;99.90;;;;;;5034174;28;20209;-65
2022/12/07 09:06:32;;;;;;;6.82;4.32;;;3.50;99.90;;;;;;5034021;28;20236;-65
2022/12/07 09:09:02;;;;;;;5.45;3.35;;;3.60;99.90;;;;;;5033120;28;20212;-66
2022/12/07 09:11:29;;;;;;;3.70;3.30;;;3.70;99.90;;;;;;5032921;28;20222;-66
2022/12/07 09:13:55;;;;;;;8.02;3.67;;;3.80;99.90;;;;;;5033535;28;20210;-67
2022/12/07 09:16:22;;;;;;;4.43;2.90;;;3.90;99.90;;;;;;5033598;28;20219;-66
2022/12/07 09:18:49;;;;;;;5.95;3.25;;;4.10;99.90;;;;;;5033444;28;20206;-66
2022/12/07 09:21:16;;;;;;;5.47;3.65;;;4.10;99.90;;;;;;5033893;28;20206;-63
2022/12/07 09:23:43;;;;;;;4.45;3.25;;;4.20;99.90;;;;;;5034302;28;20207;-63
2022/12/07 09:26:11;;;;;;;4.00;3.40;;;4.30;99.90;;;;;;5034209;28;20202;-63
2022/12/07 09:28:38;;;;;;;4.20;3.13;;;4.30;99.90;;;;;;5034222;28;20580;-63
2022/12/07 09:31:06;;;;;;;3.35;3.05;;;4.30;99.90;;;;;;5034152;28;20237;-68
2022/12/07 09:33:33;;;;;;;4.70;3.35;;;4.30;99.90;;;;;;5033957;28;20213;-63
2022/12/07 09:35:59;;;;;;;3.55;2.70;;;4.30;99.90;;;;;;5034241;28;20212;-63
2022/12/07 09:38:26;;;;;;;4.25;2.97;;;4.30;99.90;;;;;;5034066;28;20199;-65
2022/12/07 09:40:55;;;;;;;3.40;3.10;;;4.30;99.90;;;;;;5032122;28;20203;-66
2022/12/07 09:43:26;;;;;;;3.83;3.10;;;4.40;99.90;;;;;;5032843;28;20206;-66
2022/12/07 09:45:55;;;;;;;4.00;2.72;;;4.40;99.90;;;;;;5032714;28;20210;-66
2022/12/07 09:48:25;;;;;;;5.72;3.38;;;4.40;99.90;;;;;;5032816;28;20226;-66
2022/12/07 09:50:55;;;;;;;4.28;3.13;;;4.40;99.90;;;;;;5032005;28;20335;-66
2022/12/07 09:53:26;;;;;;;3.90;3.00;;;4.40;99.90;;;;;;5032935;28;20757;-63
2022/12/07 09:55:54;;;;;;;3.63;2.75;;;4.60;99.90;;;;;;5033393;28;20206;-63
2022/12/07 09:58:26;;;;;;;5.15;3.70;;;4.70;99.90;;;;;;5032540;28;20218;-66
2022/12/07 10:00:56;;;;;;;3.03;2.55;;;4.60;99.90;;;;;;5032083;28;20747;-66
2022/12/07 10:03:23;;;;;;;3.17;2.75;;;4.70;99.90;;;;;;5032515;28;20584;-66
2022/12/07 10:05:52;;;;;;;4.10;2.80;;;4.80;99.90;;;;;;5032310;28;20293;-66
2022/12/07 10:08:20;;;;;;;4.47;3.20;;;4.90;99.90;;;;;;5032734;28;20223;-66
2022/12/07 10:10:50;;;;;;;4.00;2.80;;;5.00;99.90;;;;;;5031690;28;20222;-66
2022/12/07 10:13:21;;;;;;;3.28;2.78;;;5.20;99.90;;;;;;5032070;28;20564;-66
2022/12/07 10:15:53;;;;;;;3.03;2.35;;;5.20;99.90;;;;;;5032036;28;20277;-66
2022/12/07 10:18:26;;;;;;;4.63;3.13;;;5.30;99.90;;;;;;5032277;28;20767;-66
2022/12/07 10:21:02;;;;;;;2.83;2.55;;;5.40;99.90;;;;;;5031519;28;20206;-66
2022/12/07 10:23:29;;;;;;;4.80;2.95;;;5.40;99.90;;;;;;5032529;28;20202;-65
2022/12/07 10:25:56;;;;;;;7.63;2.80;;;5.50;99.90;;;;;;5031869;28;20203;-65
2022/12/07 10:28:23;;;;;;;2.85;2.15;;;5.60;99.90;;;;;;5031986;28;20239;-67
2022/12/07 10:30:58;;;;;;;2.80;2.40;;;5.70;99.90;;;;;;5031460;28;20223;-64
2022/12/07 10:33:31;;;;;;;3.58;2.25;;;5.90;99.90;;;;;;5031884;28;20242;-63
2022/12/07 10:35:58;;;;;;;2.80;2.10;;;6.00;99.90;;;;;;5050939;28;20202;-64
2022/12/07 10:38:27;;;;;;;3.88;2.65;;;5.90;99.90;;;;;;5052071;28;20880;-64
2022/12/07 10:41:05;;;;;;;5.50;3.20;;;5.80;99.90;;;;;;5050653;28;20609;-63
2022/12/07 10:43:33;;;;;;;2.97;2.40;;;5.80;99.90;;;;;;5051385;28;20217;-64
2022/12/07 10:46:23;;;;;;;5.68;2.30;;;5.60;99.90;;;;;;5051816;28;20206;-63
2022/12/07 10:49:00;;;;;;;5.68;2.92;;;5.40;99.90;;;;;;5047768;28;20244;-64
2022/12/07 10:51:36;;;;;;;4.50;3.10;;;5.20;99.90;;;;;;5023595;28;20274;-62
2022/12/07 10:54:17;;;;;;;2.53;2.30;;;5.10;99.90;;;;;;5012080;28;20279;-63
2022/12/07 10:57:02;;;;;;;3.80;2.55;;;5.00;99.90;;;;;;5011148;28;20262;-63
2022/12/07 10:59:52;;;;;;;5.15;2.95;;;5.00;99.90;;;;;;5012000;28;20235;-63
2022/12/07 11:02:34;;;;;;;4.45;2.50;;;5.10;99.90;;;;;;5011898;28;20199;-63
2022/12/07 11:05:11;;;;;;;4.30;2.65;;;5.10;99.90;;;;;;5012375;28;20210;-63
2022/12/07 11:07:45;;;;;;;2.80;2.20;;;5.10;99.90;;;;;;5011801;28;20230;-63
2022/12/07 11:10:19;;;;;;;2.78;2.58;;;5.10;99.90;;;;;;5011961;28;20305;-63
2022/12/07 11:13:05;;;;;;;3.15;2.67;;;5.10;99.90;;;;;;5011700;28;20222;-63
2022/12/07 11:15:46;;;;;;;2.80;2.28;;;5.10;99.90;;;;;;5020640;28;20215;-63
2022/12/07 11:18:23;;;;;;;3.22;2.45;;;5.10;99.90;;;;;;5013382;28;20234;-63
2022/12/07 11:20:57;;;;;;;2.78;2.22;;;5.10;99.90;;;;;;5024652;28;20206;-63
2022/12/07 11:23:37;;;;;;;3.38;2.50;;;5.20;99.90;;;;;;5013060;28;20229;-63
2022/12/07 11:26:13;;;;;;;3.53;2.75;;;5.30;99.90;;;;;;5011021;28;20609;-63
2022/12/07 11:29:12;;;;;;;3.78;2.80;;;5.20;99.90;;;;;;5012234;28;20461;-63
2022/12/07 11:31:52;;;;;;;4.07;2.55;;;5.20;99.90;;;;;;5010892;28;20223;-63
2022/12/07 11:34:27;;;;;;;3.90;2.40;;;5.30;99.90;;;;;;5011134;28;20198;-65
2022/12/07 11:36:57;;;;;;;4.53;2.70;;;5.30;99.90;;;;;;5011028;28;20230;-65
2022/12/07 11:39:31;;;;;;;3.25;2.40;;;5.30;99.90;;;;;;5011179;28;20218;-64
2022/12/07 11:42:04;;;;;;;3.28;2.40;;;5.30;99.90;;;;;;5017840;28;20201;-64
2022/12/07 11:44:37;;;;;;;3.03;2.50;;;5.30;99.90;;;;;;5012352;28;20678;-64
2022/12/07 11:47:11;;;;;;;3.05;2.60;;;5.30;99.90;;;;;;5010811;28;20233;-65
2022/12/07 11:49:44;;;;;;;4.82;2.72;;;5.30;99.90;;;;;;5011020;28;20207;-66
2022/12/07 11:52:19;;;;;;;3.25;2.28;;;5.30;99.90;;;;;;5010211;28;20606;-65
2022/12/07 11:54:48;;;;;;;2.65;2.28;;;5.30;99.90;;;;;;5009719;28;20834;-66
2022/12/07 11:57:18;;;;;;;2.92;2.10;;;5.30;99.90;;;;;;5010924;28;20605;-66
2022/12/07 11:59:51;;;;;;;2.78;2.40;;;5.30;99.90;;;;;;5010704;28;20583;-65
2022/12/07 12:02:23;;;;;;;2.30;2.00;;;5.20;99.90;;;;;;5010464;28;20199;-66
2022/12/07 12:04:56;;;;;;;3.40;2.40;;;5.30;99.90;;;;;;5010824;28;20211;-66
2022/12/07 12:07:26;;;;;;;3.60;2.38;;;5.30;99.90;;;;;;5010996;28;20227;-66
2022/12/07 12:09:57;;;;;;;3.90;2.70;;;5.30;99.90;;;;;;5010229;28;20207;-66
2022/12/07 12:12:53;;;;;;;2.90;2.22;;;5.30;99.90;;;;;;5010416;28;20230;-64
2022/12/07 12:15:32;;;;;;;6.70;2.92;;;5.20;99.90;;;;;;5011807;28;20249;-64
2022/12/07 12:18:17;;;;;;;13.00;7.75;;;5.30;99.90;;;;;;5011346;28;20234;-64
2022/12/07 12:20:50;;;;;;;7.65;5.47;;;5.40;99.90;;;;;;5010865;28;20233;-63
2022/12/07 12:23:20;;;;;;;3.10;2.45;;;5.40;99.90;;;;;;5046593;28;20761;-66
2022/12/07 12:25:50;;;;;;;2.97;2.17;;;5.40;99.90;;;;;;5050524;28;20206;-65
2022/12/07 12:28:26;;;;;;;4.32;2.78;;;5.40;99.90;;;;;;5050827;28;20245;-66
2022/12/07 12:36:57;;;;;;;2.88;2.47;;;5.30;99.90;;;;;;5066015;28;20190;-92
2022/12/07 12:39:30;;;;;;;3.95;2.60;;;5.20;99.90;;;;;;5073991;28;20210;-92
2022/12/07 12:45:46;;;;;;;;;;;;;;;;;;;;;
2022/12/07 12:52:29;;;;;;;2.15;1.88;;;5.10;99.90;;;;;;5063856;28;20229;-92
2022/12/07 12:59:26;;;;;;;2.78;2.40;;;5.10;99.90;;;;;;5059199;28;20236;-92
2022/12/07 13:01:57;;;;;;;3.78;3.25;;;5.00;99.90;;;;;;4980000;28;20227;-93
2022/12/07 13:18:01;;;;;;;3.88;3.17;;;5.00;99.90;;;;;;5051948;28;20233;-67
2022/12/07 13:20:51;;;;;;;3.55;2.53;;;5.00;99.90;;;;;;5052772;28;20202;-67
2022/12/07 13:23:25;;;;;;;4.75;2.58;;;5.00;99.90;;;;;;5053518;28;20194;-68
2022/12/07 13:26:16;;;;;;;2.88;2.40;;;4.90;99.90;;;;;;5052665;28;20219;-70
2022/12/07 13:28:46;;;;;;;3.63;3.15;;;4.90;99.90;;;;;;5039662;28;20210;-68
2022/12/07 13:31:31;;;;;;;4.00;2.60;;;4.80;99.90;;;;;;5052620;28;20212;-68
2022/12/07 13:33:58;;;;;;;3.83;2.20;;;4.80;99.90;;;;;;5053321;28;20226;-69
2022/12/07 13:36:27;;;;;;;2.33;2.10;;;4.80;99.90;;;;;;5052639;28;20221;-68
2022/12/07 13:38:57;;;;;;;5.53;2.60;;;4.80;99.90;;;;;;5053065;28;20206;-69
2022/12/07 13:41:26;;;;;;;3.00;2.42;;;4.80;99.90;;;;;;5052127;28;20541;-69
2022/12/07 13:44:01;;;;;;;3.33;2.25;;;4.90;99.90;;;;;;5052271;28;20249;-69
2022/12/07 13:46:42;;;;;;;4.45;3.00;;;4.90;99.90;;;;;;5052494;28;20221;-69
2022/12/07 13:49:18;;;;;;;3.55;2.53;;;5.00;99.90;;;;;;5051492;28;20244;-69
2022/12/07 13:51:46;;;;;;;2.70;2.25;;;5.00;99.90;;;;;;5051651;28;20267;-68